Itanhomi, Brazil
Current Conditions -  °F | °C
As of 2:00 PM on Friday 21 Nov 2014 (Local Time) from SBIP Reporting Station
Scattered Clouds Scattered Clouds  
Wind Chill: 86°   Ceiling: Unl
Heat Index: 86°   Visibility: 6mi
Dew Point: 61°   Wind: 7mph
Humidity: 43%   Direction: 90°E
Pressure: 29.97"   Gusts: NA
Location:  19.17°S, 41.86°W
Report Text: SBIP 211600Z 09006KT 9999 SCT035 30/16 Q1015
Loading
Personal Weather Stations






























Interactive Weather Map New forecast layout! Learn more

10-Day Weather Forecast

Advertisements
Track Severe Weather on mobile